sensor_id;sensor_type;location;lat;lon;timestamp;pressure;altitude;pressure_sealevel;temperature;humidity
75247;BME280;63844;50.042;19.224;2023-02-03T00:01:48;99648.50;;;0.05;77.03
75247;BME280;63844;50.042;19.224;2023-02-03T00:04:14;99653.55;;;0.04;77.06
75247;BME280;63844;50.042;19.224;2023-02-03T00:06:41;99655.66;;;0.03;76.97
75247;BME280;63844;50.042;19.224;2023-02-03T00:09:08;99651.17;;;-0.01;76.98
75247;BME280;63844;50.042;19.224;2023-02-03T00:11:35;99653.67;;;-0.05;76.86
75247;BME280;63844;50.042;19.224;2023-02-03T00:14:02;99650.19;;;-0.05;76.93
75247;BME280;63844;50.042;19.224;2023-02-03T00:16:30;99653.91;;;-0.10;76.73
75247;BME280;63844;50.042;19.224;2023-02-03T00:18:57;99656.38;;;-0.13;76.91
75247;BME280;63844;50.042;19.224;2023-02-03T00:21:23;99658.45;;;-0.13;77.07
75247;BME280;63844;50.042;19.224;2023-02-03T00:23:50;99660.73;;;-0.13;76.93
75247;BME280;63844;50.042;19.224;2023-02-03T00:26:17;99665.64;;;-0.16;77.12
75247;BME280;63844;50.042;19.224;2023-02-03T00:28:44;99658.48;;;-0.15;77.04
75247;BME280;63844;50.042;19.224;2023-02-03T00:31:18;99663.86;;;-0.14;77.09
75247;BME280;63844;50.042;19.224;2023-02-03T00:33:46;99663.52;;;-0.14;76.66
75247;BME280;63844;50.042;19.224;2023-02-03T00:36:13;99659.85;;;-0.12;76.71
75247;BME280;63844;50.042;19.224;2023-02-03T00:38:39;99664.69;;;-0.10;76.63
75247;BME280;63844;50.042;19.224;2023-02-03T00:41:06;99668.17;;;-0.10;76.87
75247;BME280;63844;50.042;19.224;2023-02-03T00:43:32;99677.05;;;-0.10;76.67
75247;BME280;63844;50.042;19.224;2023-02-03T00:45:59;99676.33;;;-0.09;76.53
75247;BME280;63844;50.042;19.224;2023-02-03T00:48:25;99686.77;;;-0.08;76.71
75247;BME280;63844;50.042;19.224;2023-02-03T00:50:52;99692.15;;;-0.08;76.86
75247;BME280;63844;50.042;19.224;2023-02-03T00:53:19;99696.50;;;-0.07;76.80
75247;BME280;63844;50.042;19.224;2023-02-03T00:55:45;99692.52;;;-0.10;76.63
75247;BME280;63844;50.042;19.224;2023-02-03T00:58:11;99691.14;;;-0.09;77.18
75247;BME280;63844;50.042;19.224;2023-02-03T01:00:38;99696.89;;;-0.11;77.05
75247;BME280;63844;50.042;19.224;2023-02-03T01:03:04;99699.86;;;-0.13;76.72
75247;BME280;63844;50.042;19.224;2023-02-03T01:05:31;99695.19;;;-0.15;76.73
75247;BME280;63844;50.042;19.224;2023-02-03T01:08:00;99697.25;;;-0.13;76.71
75247;BME280;63844;50.042;19.224;2023-02-03T01:10:27;99692.75;;;-0.15;76.43
75247;BME280;63844;50.042;19.224;2023-02-03T01:12:53;99689.27;;;-0.14;76.52
75247;BME280;63844;50.042;19.224;2023-02-03T01:15:20;99695.02;;;-0.14;76.55
75247;BME280;63844;50.042;19.224;2023-02-03T01:17:46;99688.73;;;-0.13;76.20
75247;BME280;63844;50.042;19.224;2023-02-03T01:20:13;99684.73;;;-0.12;76.50
75247;BME280;63844;50.042;19.224;2023-02-03T01:22:42;99683.84;;;-0.12;76.65
75247;BME280;63844;50.042;19.224;2023-02-03T01:25:08;99681.36;;;-0.07;77.05
75247;BME280;63844;50.042;19.224;2023-02-03T01:27:35;99682.71;;;-0.05;76.99
75247;BME280;63844;50.042;19.224;2023-02-03T01:30:01;99676.25;;;-0.03;76.59
75247;BME280;63844;50.042;19.224;2023-02-03T01:32:28;99677.66;;;-0.04;76.17
75247;BME280;63844;50.042;19.224;2023-02-03T01:34:54;99675.24;;;-0.05;75.95
75247;BME280;63844;50.042;19.224;2023-02-03T01:37:21;99670.91;;;-0.06;75.73
75247;BME280;63844;50.042;19.224;2023-02-03T01:39:47;99679.62;;;-0.08;75.89
75247;BME280;63844;50.042;19.224;2023-02-03T01:42:14;99678.25;;;-0.09;75.95
75247;BME280;63844;50.042;19.224;2023-02-03T01:47:28;99666.23;;;-0.08;75.87
75247;BME280;63844;50.042;19.224;2023-02-03T01:52:26;99668.86;;;-0.10;75.44
75247;BME280;63844;50.042;19.224;2023-02-03T01:54:56;99667.10;;;-0.08;75.57
75247;BME280;63844;50.042;19.224;2023-02-03T01:57:30;99665.20;;;-0.09;75.43
75247;BME280;63844;50.042;19.224;2023-02-03T01:59:59;99662.12;;;-0.13;75.40
75247;BME280;63844;50.042;19.224;2023-02-03T02:02:26;99662.37;;;-0.19;75.18
75247;BME280;63844;50.042;19.224;2023-02-03T02:05:02;99657.69;;;-0.21;75.21
75247;BME280;63844;50.042;19.224;2023-02-03T02:07:31;99655.13;;;-0.25;75.47
75247;BME280;63844;50.042;19.224;2023-02-03T02:09:59;99652.66;;;-0.22;75.48
75247;BME280;63844;50.042;19.224;2023-02-03T02:12:26;99653.01;;;-0.23;75.38
75247;BME280;63844;50.042;19.224;2023-02-03T02:14:53;99652.54;;;-0.26;75.45
75247;BME280;63844;50.042;19.224;2023-02-03T02:17:27;99650.78;;;-0.26;75.24
75247;BME280;63844;50.042;19.224;2023-02-03T02:20:45;99651.70;;;-0.29;75.40
75247;BME280;63844;50.042;19.224;2023-02-03T02:23:35;99647.39;;;-0.34;75.15
75247;BME280;63844;50.042;19.224;2023-02-03T02:26:22;99644.66;;;-0.38;75.46
75247;BME280;63844;50.042;19.224;2023-02-03T02:29:11;99637.73;;;-0.40;75.43
75247;BME280;63844;50.042;19.224;2023-02-03T02:32:03;99635.48;;;-0.42;75.62
75247;BME280;63844;50.042;19.224;2023-02-03T02:39:57;99641.13;;;-0.47;75.61
75247;BME280;63844;50.042;19.224;2023-02-03T02:45:24;99642.02;;;-0.51;75.52
75247;BME280;63844;50.042;19.224;2023-02-03T02:47:58;99640.98;;;-0.52;75.57
75247;BME280;63844;50.042;19.224;2023-02-03T02:50:31;99635.42;;;-0.52;75.53
75247;BME280;63844;50.042;19.224;2023-02-03T02:53:01;99633.13;;;-0.49;76.24
75247;BME280;63844;50.042;19.224;2023-02-03T02:55:31;99628.96;;;-0.48;75.98
75247;BME280;63844;50.042;19.224;2023-02-03T02:58:04;99619.57;;;-0.49;76.17
75247;BME280;63844;50.042;19.224;2023-02-03T03:00:34;99611.24;;;-0.50;76.20
75247;BME280;63844;50.042;19.224;2023-02-03T03:03:18;99607.95;;;-0.52;76.34
75247;BME280;63844;50.042;19.224;2023-02-03T03:05:50;99597.05;;;-0.55;76.32
75247;BME280;63844;50.042;19.224;2023-02-03T03:08:21;99594.51;;;-0.61;76.36
75247;BME280;63844;50.042;19.224;2023-02-03T03:10:52;99589.71;;;-0.69;76.75
75247;BME280;63844;50.042;19.224;2023-02-03T03:13:24;99587.98;;;-0.70;77.09
75247;BME280;63844;50.042;19.224;2023-02-03T03:15:54;99595.13;;;-0.71;77.37
75247;BME280;63844;50.042;19.224;2023-02-03T03:18:25;99601.23;;;-0.73;77.43
75247;BME280;63844;50.042;19.224;2023-02-03T03:20:55;99608.42;;;-0.80;77.38
75247;BME280;63844;50.042;19.224;2023-02-03T03:23:29;99617.85;;;-0.84;77.61
75247;BME280;63844;50.042;19.224;2023-02-03T03:26:07;99627.46;;;-0.89;77.59
75247;BME280;63844;50.042;19.224;2023-02-03T03:28:46;99634.95;;;-0.91;77.60
75247;BME280;63844;50.042;19.224;2023-02-03T03:31:16;99640.52;;;-0.94;77.65
75247;BME280;63844;50.042;19.224;2023-02-03T03:33:45;99641.41;;;-0.93;78.00
75247;BME280;63844;50.042;19.224;2023-02-03T03:36:26;99639.30;;;-0.92;77.83
75247;BME280;63844;50.042;19.224;2023-02-03T03:39:24;99631.65;;;-0.91;77.87
75247;BME280;63844;50.042;19.224;2023-02-03T03:42:02;99626.30;;;-0.95;77.86
75247;BME280;63844;50.042;19.224;2023-02-03T03:44:38;99625.13;;;-1.00;77.83
75247;BME280;63844;50.042;19.224;2023-02-03T03:47:18;99626.02;;;-1.02;77.99
75247;BME280;63844;50.042;19.224;2023-02-03T03:49:47;99628.47;;;-1.04;77.93
75247;BME280;63844;50.042;19.224;2023-02-03T03:52:19;99621.00;;;-1.04;77.85
75247;BME280;63844;50.042;19.224;2023-02-03T03:54:48;99611.80;;;-1.05;78.22
75247;BME280;63844;50.042;19.224;2023-02-03T03:57:28;99605.88;;;-1.03;78.15
75247;BME280;63844;50.042;19.224;2023-02-03T03:59:59;99595.63;;;-1.03;78.26
75247;BME280;63844;50.042;19.224;2023-02-03T04:02:28;99589.54;;;-1.03;78.27
75247;BME280;63844;50.042;19.224;2023-02-03T04:04:57;99587.61;;;-1.00;78.19
75247;BME280;63844;50.042;19.224;2023-02-03T04:07:37;99580.16;;;-1.03;78.11
75247;BME280;63844;50.042;19.224;2023-02-03T04:10:06;99575.32;;;-1.04;78.29
75247;BME280;63844;50.042;19.224;2023-02-03T04:12:36;99574.31;;;-1.09;78.36
75247;BME280;63844;50.042;19.224;2023-02-03T04:15:03;99574.36;;;-1.13;78.41
75247;BME280;63844;50.042;19.224;2023-02-03T04:17:30;99575.74;;;-1.13;78.47
75247;BME280;63844;50.042;19.224;2023-02-03T04:19:59;99579.55;;;-1.11;78.80
75247;BME280;63844;50.042;19.224;2023-02-03T04:22:25;99579.37;;;-1.10;78.74
75247;BME280;63844;50.042;19.224;2023-02-03T04:24:52;99580.73;;;-1.08;78.72
75247;BME280;63844;50.042;19.224;2023-02-03T04:27:18;99576.73;;;-1.07;78.53
75247;BME280;63844;50.042;19.224;2023-02-03T04:29:45;99576.07;;;-1.12;78.33
75247;BME280;63844;50.042;19.224;2023-02-03T04:32:12;99578.05;;;-1.20;78.73
75247;BME280;63844;50.042;19.224;2023-02-03T04:34:39;99571.59;;;-1.16;78.73
75247;BME280;63844;50.042;19.224;2023-02-03T04:37:05;99568.14;;;-1.17;78.86
75247;BME280;63844;50.042;19.224;2023-02-03T04:39:32;99563.67;;;-1.23;79.15
75247;BME280;63844;50.042;19.224;2023-02-03T04:41:58;99561.26;;;-1.25;79.21
75247;BME280;63844;50.042;19.224;2023-02-03T04:44:24;99556.04;;;-1.23;79.16
75247;BME280;63844;50.042;19.224;2023-02-03T04:46:51;99550.42;;;-1.18;79.21
75247;BME280;63844;50.042;19.224;2023-02-03T04:49:17;99545.17;;;-1.14;79.06
75247;BME280;63844;50.042;19.224;2023-02-03T04:51:44;99539.80;;;-1.14;78.89
75247;BME280;63844;50.042;19.224;2023-02-03T04:54:10;99540.85;;;-1.16;78.80
75247;BME280;63844;50.042;19.224;2023-02-03T04:56:38;99536.88;;;-1.17;78.89
75247;BME280;63844;50.042;19.224;2023-02-03T04:59:04;99531.16;;;-1.19;78.98
75247;BME280;63844;50.042;19.224;2023-02-03T05:01:31;99525.64;;;-1.22;79.06
75247;BME280;63844;50.042;19.224;2023-02-03T05:03:57;99524.30;;;-1.28;79.53
75247;BME280;63844;50.042;19.224;2023-02-03T05:06:25;99520.00;;;-1.31;79.89
75247;BME280;63844;50.042;19.224;2023-02-03T05:08:52;99517.04;;;-1.30;79.49
75247;BME280;63844;50.042;19.224;2023-02-03T05:11:19;99517.78;;;-1.36;80.26
75247;BME280;63844;50.042;19.224;2023-02-03T05:13:45;99518.50;;;-1.38;80.29
75247;BME280;63844;50.042;19.224;2023-02-03T05:16:12;99515.52;;;-1.35;80.19
75247;BME280;63844;50.042;19.224;2023-02-03T05:18:39;99505.86;;;-1.41;80.65
75247;BME280;63844;50.042;19.224;2023-02-03T05:21:06;99502.01;;;-1.39;80.37
75247;BME280;63844;50.042;19.224;2023-02-03T05:23:32;99496.31;;;-1.42;80.80
75247;BME280;63844;50.042;19.224;2023-02-03T05:25:59;99490.08;;;-1.43;80.84
75247;BME280;63844;50.042;19.224;2023-02-03T05:28:25;99480.51;;;-1.42;80.55
75247;BME280;63844;50.042;19.224;2023-02-03T05:30:52;99468.85;;;-1.40;80.21
75247;BME280;63844;50.042;19.224;2023-02-03T05:33:18;99462.48;;;-1.43;80.57
75247;BME280;63844;50.042;19.224;2023-02-03T05:35:44;99455.65;;;-1.39;80.12
75247;BME280;63844;50.042;19.224;2023-02-03T05:38:11;99452.01;;;-1.39;80.23
75247;BME280;63844;50.042;19.224;2023-02-03T05:40:37;99449.44;;;-1.42;80.10
75247;BME280;63844;50.042;19.224;2023-02-03T05:43:23;99456.20;;;-1.40;80.09
75247;BME280;63844;50.042;19.224;2023-02-03T05:45:49;99459.14;;;-1.42;80.03
75247;BME280;63844;50.042;19.224;2023-02-03T05:48:16;99458.83;;;-1.44;79.89
75247;BME280;63844;50.042;19.224;2023-02-03T05:50:42;99457.94;;;-1.42;80.10
75247;BME280;63844;50.042;19.224;2023-02-03T05:53:09;99453.23;;;-1.40;80.00
75247;BME280;63844;50.042;19.224;2023-02-03T05:55:35;99452.17;;;-1.38;79.84
75247;BME280;63844;50.042;19.224;2023-02-03T05:58:03;99457.73;;;-1.39;79.71
75247;BME280;63844;50.042;19.224;2023-02-03T06:00:31;99457.73;;;-1.39;79.51
75247;BME280;63844;50.042;19.224;2023-02-03T06:02:59;99449.21;;;-1.37;79.73
75247;BME280;63844;50.042;19.224;2023-02-03T06:05:29;99443.11;;;-1.33;79.63
75247;BME280;63844;50.042;19.224;2023-02-03T06:07:56;99447.41;;;-1.31;79.56
75247;BME280;63844;50.042;19.224;2023-02-03T06:10:23;99443.40;;;-1.29;79.63
75247;BME280;63844;50.042;19.224;2023-02-03T06:12:50;99437.98;;;-1.26;79.45
75247;BME280;63844;50.042;19.224;2023-02-03T06:15:16;99439.36;;;-1.24;79.63
75247;BME280;63844;50.042;19.224;2023-02-03T06:17:47;99435.66;;;-1.21;79.27
75247;BME280;63844;50.042;19.224;2023-02-03T06:20:16;99426.62;;;-1.19;79.43
75247;BME280;63844;50.042;19.224;2023-02-03T06:22:44;99421.36;;;-1.15;79.41
75247;BME280;63844;50.042;19.224;2023-02-03T06:25:10;99415.80;;;-1.16;79.01
75247;BME280;63844;50.042;19.224;2023-02-03T06:27:37;99416.12;;;-1.13;79.08
75247;BME280;63844;50.042;19.224;2023-02-03T06:30:04;99412.13;;;-1.13;79.15
75247;BME280;63844;50.042;19.224;2023-02-03T06:32:30;99397.89;;;-1.13;79.33
75247;BME280;63844;50.042;19.224;2023-02-03T06:34:57;99397.88;;;-1.11;79.32
75247;BME280;63844;50.042;19.224;2023-02-03T06:37:23;99397.85;;;-1.11;79.37
75247;BME280;63844;50.042;19.224;2023-02-03T06:39:50;99391.58;;;-1.08;79.33
75247;BME280;63844;50.042;19.224;2023-02-03T06:42:16;99388.08;;;-1.07;79.01
75247;BME280;63844;50.042;19.224;2023-02-03T06:44:43;99388.20;;;-1.03;78.94
75247;BME280;63844;50.042;19.224;2023-02-03T06:47:10;99391.19;;;-1.06;78.54
75247;BME280;63844;50.042;19.224;2023-02-03T06:49:36;99389.00;;;-1.10;77.68
75247;BME280;63844;50.042;19.224;2023-02-03T06:52:03;99385.14;;;-1.07;77.40
75247;BME280;63844;50.042;19.224;2023-02-03T06:54:29;99381.27;;;-1.04;77.58
75247;BME280;63844;50.042;19.224;2023-02-03T06:56:56;99373.80;;;-1.04;77.45
75247;BME280;63844;50.042;19.224;2023-02-03T06:59:22;99368.19;;;-0.99;77.80
75247;BME280;63844;50.042;19.224;2023-02-03T07:01:48;99360.70;;;-0.97;77.47
75247;BME280;63844;50.042;19.224;2023-02-03T07:04:15;99364.64;;;-0.94;77.35
75247;BME280;63844;50.042;19.224;2023-02-03T07:06:41;99357.84;;;-0.92;77.48
75247;BME280;63844;50.042;19.224;2023-02-03T07:09:08;99350.35;;;-0.91;77.34
75247;BME280;63844;50.042;19.224;2023-02-03T07:11:34;99349.64;;;-0.90;75.80
75247;BME280;63844;50.042;19.224;2023-02-03T07:14:01;99347.52;;;-0.87;75.65
75247;BME280;63844;50.042;19.224;2023-02-03T07:16:28;99344.66;;;-0.81;75.89
75247;BME280;63844;50.042;19.224;2023-02-03T07:18:54;99341.92;;;-0.73;76.24
75247;BME280;63844;50.042;19.224;2023-02-03T07:21:21;99344.16;;;-0.72;75.79
75247;BME280;63844;50.042;19.224;2023-02-03T07:23:48;99332.67;;;-0.70;75.14
75247;BME280;63844;50.042;19.224;2023-02-03T07:26:15;99324.47;;;-0.67;74.95
75247;BME280;63844;50.042;19.224;2023-02-03T07:28:42;99323.02;;;-0.63;74.73
75247;BME280;63844;50.042;19.224;2023-02-03T07:31:08;99317.81;;;-0.64;73.68
75247;BME280;63844;50.042;19.224;2023-02-03T07:33:36;99312.20;;;-0.61;73.76
75247;BME280;63844;50.042;19.224;2023-02-03T07:36:04;99310.14;;;-0.62;72.86
75247;BME280;63844;50.042;19.224;2023-02-03T07:38:31;99297.27;;;-0.62;72.79
75247;BME280;63844;50.042;19.224;2023-02-03T07:40:57;99290.71;;;-0.54;74.22
75247;BME280;63844;50.042;19.224;2023-02-03T07:43:24;99293.23;;;-0.49;74.27
75247;BME280;63844;50.042;19.224;2023-02-03T07:45:50;99293.21;;;-0.47;73.14
75247;BME280;63844;50.042;19.224;2023-02-03T07:48:17;99293.66;;;-0.43;73.37
75247;BME280;63844;50.042;19.224;2023-02-03T07:50:43;99292.60;;;-0.42;72.21
75247;BME280;63844;50.042;19.224;2023-02-03T07:53:11;99291.98;;;-0.36;73.36
75247;BME280;63844;50.042;19.224;2023-02-03T07:55:37;99284.91;;;-0.30;74.50
75247;BME280;63844;50.042;19.224;2023-02-03T07:58:06;99283.62;;;-0.27;74.02
75247;BME280;63844;50.042;19.224;2023-02-03T08:00:32;99281.09;;;-0.20;74.01
75247;BME280;63844;50.042;19.224;2023-02-03T08:02:59;99278.58;;;-0.16;74.53
75247;BME280;63844;50.042;19.224;2023-02-03T08:05:26;99266.62;;;-0.09;74.70
75247;BME280;63844;50.042;19.224;2023-02-03T08:07:52;99265.86;;;-0.06;74.55
75247;BME280;63844;50.042;19.224;2023-02-03T08:10:18;99255.41;;;-0.05;74.11
75247;BME280;63844;50.042;19.224;2023-02-03T08:12:45;99247.73;;;-0.04;73.59
75247;BME280;63844;50.042;19.224;2023-02-03T08:15:13;99241.56;;;0.00;73.69
75247;BME280;63844;50.042;19.224;2023-02-03T08:17:40;99243.07;;;0.04;72.91
75247;BME280;63844;50.042;19.224;2023-02-03T08:20:08;99240.41;;;0.06;72.70
75247;BME280;63844;50.042;19.224;2023-02-03T08:22:35;99237.25;;;0.07;72.37
75247;BME280;63844;50.042;19.224;2023-02-03T08:25:02;99238.84;;;0.15;72.57
75247;BME280;63844;50.042;19.224;2023-02-03T08:27:30;99234.77;;;0.18;71.26
75247;BME280;63844;50.042;19.224;2023-02-03T08:29:58;99231.87;;;0.24;71.64
75247;BME280;63844;50.042;19.224;2023-02-03T08:32:24;99226.75;;;0.19;69.03
75247;BME280;63844;50.042;19.224;2023-02-03T08:34:51;99226.52;;;0.21;68.80
75247;BME280;63844;50.042;19.224;2023-02-03T08:37:21;99222.71;;;0.30;69.44
75247;BME280;63844;50.042;19.224;2023-02-03T08:39:50;99217.94;;;0.33;68.87
75247;BME280;63844;50.042;19.224;2023-02-03T08:42:18;99217.20;;;0.35;68.76
75247;BME280;63844;50.042;19.224;2023-02-03T08:44:44;99222.26;;;0.43;69.59
75247;BME280;63844;50.042;19.224;2023-02-03T08:47:11;99215.25;;;0.44;69.11
75247;BME280;63844;50.042;19.224;2023-02-03T08:49:38;99211.79;;;0.51;69.20
75247;BME280;63844;50.042;19.224;2023-02-03T08:52:10;99206.55;;;0.52;69.23
75247;BME280;63844;50.042;19.224;2023-02-03T08:54:37;99200.59;;;0.62;69.96
75247;BME280;63844;50.042;19.224;2023-02-03T08:57:05;99195.16;;;0.71;70.34
75247;BME280;63844;50.042;19.224;2023-02-03T08:59:32;99195.98;;;0.73;71.00
75247;BME280;63844;50.042;19.224;2023-02-03T09:02:03;99196.63;;;0.67;72.88
75247;BME280;63844;50.042;19.224;2023-02-03T09:04:30;99184.04;;;0.54;74.65
75247;BME280;63844;50.042;19.224;2023-02-03T09:06:59;99183.23;;;0.52;75.58
75247;BME280;63844;50.042;19.224;2023-02-03T09:09:26;99183.08;;;0.35;77.25
75247;BME280;63844;50.042;19.224;2023-02-03T09:11:54;99182.45;;;0.32;78.32
75247;BME280;63844;50.042;19.224;2023-02-03T09:14:26;99185.13;;;0.37;78.27
75247;BME280;63844;50.042;19.224;2023-02-03T09:16:52;99180.45;;;0.36;78.97
75247;BME280;63844;50.042;19.224;2023-02-03T09:19:19;99177.83;;;0.36;79.21
75247;BME280;63844;50.042;19.224;2023-02-03T09:21:45;99168.83;;;0.34;79.93
75247;BME280;63844;50.042;19.224;2023-02-03T09:24:15;99163.98;;;0.32;80.45
75247;BME280;63844;50.042;19.224;2023-02-03T09:26:41;99153.91;;;0.31;80.54
75247;BME280;63844;50.042;19.224;2023-02-03T09:29:08;99152.65;;;0.26;81.40
75247;BME280;63844;50.042;19.224;2023-02-03T09:31:35;99150.84;;;0.29;81.52
75247;BME280;63844;50.042;19.224;2023-02-03T09:34:01;99145.58;;;0.31;81.22
75247;BME280;63844;50.042;19.224;2023-02-03T09:36:28;99132.71;;;0.29;81.32
75247;BME280;63844;50.042;19.224;2023-02-03T09:38:56;99122.56;;;0.39;81.02
75247;BME280;63844;50.042;19.224;2023-02-03T09:44:22;99103.85;;;0.43;80.98
75247;BME280;63844;50.042;19.224;2023-02-03T09:46:54;99085.45;;;0.48;80.79
75247;BME280;63844;50.042;19.224;2023-02-03T09:49:39;99074.83;;;0.49;81.15
75247;BME280;63844;50.042;19.224;2023-02-03T09:52:24;99064.57;;;0.55;81.20
75247;BME280;63844;50.042;19.224;2023-02-03T09:55:03;99058.42;;;0.57;81.00
75247;BME280;63844;50.042;19.224;2023-02-03T09:57:39;99051.04;;;0.53;81.57
75247;BME280;63844;50.042;19.224;2023-02-03T10:00:34;99040.34;;;0.55;81.58
75247;BME280;63844;50.042;19.224;2023-02-03T10:03:18;99033.67;;;0.57;81.12
75247;BME280;63844;50.042;19.224;2023-02-03T10:06:09;99021.77;;;0.53;81.67
75247;BME280;63844;50.042;19.224;2023-02-03T10:14:30;98983.98;;;0.54;82.18
75247;BME280;63844;50.042;19.224;2023-02-03T10:20:03;98970.94;;;0.32;82.75
75247;BME280;63844;50.042;19.224;2023-02-03T10:22:34;98965.42;;;0.30;82.85
75247;BME280;63844;50.042;19.224;2023-02-03T10:25:20;98953.71;;;0.25;82.92
75247;BME280;63844;50.042;19.224;2023-02-03T10:27:52;98946.98;;;0.21;83.21
75247;BME280;63844;50.042;19.224;2023-02-03T10:30:23;98933.76;;;0.29;83.19
75247;BME280;63844;50.042;19.224;2023-02-03T10:32:54;98921.38;;;0.30;83.27
75247;BME280;63844;50.042;19.224;2023-02-03T10:35:32;98916.45;;;0.26;83.37
75247;BME280;63844;50.042;19.224;2023-02-03T10:38:03;98907.63;;;0.30;83.30
75247;BME280;63844;50.042;19.224;2023-02-03T10:40:30;98898.09;;;0.29;83.23
75247;BME280;63844;50.042;19.224;2023-02-03T10:42:57;98894.89;;;0.24;83.79
75247;BME280;63844;50.042;19.224;2023-02-03T10:45:42;98884.44;;;0.25;83.50
75247;BME280;63844;50.042;19.224;2023-02-03T10:48:14;98875.02;;;0.26;83.61
75247;BME280;63844;50.042;19.224;2023-02-03T10:50:48;98860.52;;;0.28;83.68
75247;BME280;63844;50.042;19.224;2023-02-03T10:53:25;98859.61;;;0.30;83.57
75247;BME280;63844;50.042;19.224;2023-02-03T10:58:30;98845.36;;;0.22;84.58
75247;BME280;63844;50.042;19.224;2023-02-03T11:01:08;98840.52;;;0.27;84.35
75247;BME280;63844;50.042;19.224;2023-02-03T11:03:37;98831.23;;;0.23;84.30
75247;BME280;63844;50.042;19.224;2023-02-03T11:06:07;98816.54;;;0.19;85.15
75247;BME280;63844;50.042;19.224;2023-02-03T11:08:36;98805.71;;;0.21;85.63
75247;BME280;63844;50.042;19.224;2023-02-03T11:11:29;98794.55;;;0.28;84.46
75247;BME280;63844;50.042;19.224;2023-02-03T11:16:33;98770.69;;;0.22;85.22
75247;BME280;63844;50.042;19.224;2023-02-03T11:19:15;98768.01;;;0.25;85.00
75247;BME280;63844;50.042;19.224;2023-02-03T11:21:46;98764.33;;;0.26;84.54
75247;BME280;63844;50.042;19.224;2023-02-03T11:24:23;98759.00;;;0.23;85.17
75247;BME280;63844;50.042;19.224;2023-02-03T11:27:13;98751.13;;;0.19;85.63
75247;BME280;63844;50.042;19.224;2023-02-03T11:29:43;98734.12;;;0.17;86.10
75247;BME280;63844;50.042;19.224;2023-02-03T11:35:04;98727.70;;;0.10;86.65
75247;BME280;63844;50.042;19.224;2023-02-03T11:37:40;98713.52;;;0.13;85.93
75247;BME280;63844;50.042;19.224;2023-02-03T11:42:35;98691.73;;;0.14;86.02
75247;BME280;63844;50.042;19.224;2023-02-03T11:47:53;98676.17;;;0.16;85.87
75247;BME280;63844;50.042;19.224;2023-02-03T11:50:43;98666.05;;;0.18;86.94
75247;BME280;63844;50.042;19.224;2023-02-03T11:53:24;98654.55;;;0.24;85.55
75247;BME280;63844;50.042;19.224;2023-02-03T11:58:53;98626.26;;;0.28;86.22
75247;BME280;63844;50.042;19.224;2023-02-03T12:09:27;98596.20;;;0.31;86.01
75247;BME280;63844;50.042;19.224;2023-02-03T12:12:16;98585.84;;;0.29;87.48
75247;BME280;63844;50.042;19.224;2023-02-03T12:15:01;98582.70;;;0.35;86.02
75247;BME280;63844;50.042;19.224;2023-02-03T12:18:01;98575.95;;;0.33;86.84
75247;BME280;63844;50.042;19.224;2023-02-03T12:20:37;98566.58;;;0.33;87.13
75247;BME280;63844;50.042;19.224;2023-02-03T12:28:34;98544.95;;;0.39;87.09
75247;BME280;63844;50.042;19.224;2023-02-03T12:31:16;98537.17;;;0.43;87.07
75247;BME280;63844;50.042;19.224;2023-02-03T12:33:52;98531.88;;;0.45;86.65
75247;BME280;63844;50.042;19.224;2023-02-03T12:36:24;98522.59;;;0.47;87.92
75247;BME280;63844;50.042;19.224;2023-02-03T12:38:56;98509.64;;;0.49;87.81
75247;BME280;63844;50.042;19.224;2023-02-03T12:41:30;98501.60;;;0.50;89.78
75247;BME280;63844;50.042;19.224;2023-02-03T12:44:28;98490.73;;;0.57;89.09
75247;BME280;63844;50.042;19.224;2023-02-03T12:47:05;98488.77;;;0.69;88.65
75247;BME280;63844;50.042;19.224;2023-02-03T12:49:48;98478.86;;;0.79;89.40
75247;BME280;63844;50.042;19.224;2023-02-03T12:55:14;98459.52;;;0.98;89.34
75247;BME280;63844;50.042;19.224;2023-02-03T12:57:54;98450.89;;;1.11;89.21
75247;BME280;63844;50.042;19.224;2023-02-03T13:00:40;98441.45;;;1.21;88.88
75247;BME280;63844;50.042;19.224;2023-02-03T13:03:21;98435.52;;;1.26;89.38
75247;BME280;63844;50.042;19.224;2023-02-03T13:08:35;98419.10;;;1.41;88.94
75247;BME280;63844;50.042;19.224;2023-02-03T13:11:19;98418.76;;;1.45;89.08
75247;BME280;63844;50.042;19.224;2023-02-03T13:14:14;98412.99;;;1.49;88.78
75247;BME280;63844;50.042;19.224;2023-02-03T13:16:52;98401.06;;;1.47;89.10
75247;BME280;63844;50.042;19.224;2023-02-03T13:19:24;98386.93;;;1.47;89.23
75247;BME280;63844;50.042;19.224;2023-02-03T13:21:51;98383.90;;;1.49;89.02
75247;BME280;63844;50.042;19.224;2023-02-03T13:24:20;98380.57;;;1.49;89.05
75247;BME280;63844;50.042;19.224;2023-02-03T13:29:57;98366.67;;;1.48;89.30
75247;BME280;63844;50.042;19.224;2023-02-03T13:32:41;98358.05;;;1.50;89.06
75247;BME280;63844;50.042;19.224;2023-02-03T13:41:21;98338.86;;;1.37;89.33
75247;BME280;63844;50.042;19.224;2023-02-03T13:43:54;98342.34;;;1.33;89.29
75247;BME280;63844;50.042;19.224;2023-02-03T13:48:51;98323.91;;;1.09;89.63
75247;BME280;63844;50.042;19.224;2023-02-03T13:51:29;98313.31;;;0.99;89.82
75247;BME280;63844;50.042;19.224;2023-02-03T13:54:02;98302.89;;;0.94;89.97
75247;BME280;63844;50.042;19.224;2023-02-03T13:56:30;98298.05;;;0.83;90.51
75247;BME280;63844;50.042;19.224;2023-02-03T14:01:29;98284.73;;;0.77;90.43
75247;BME280;63844;50.042;19.224;2023-02-03T14:03:59;98279.52;;;0.66;91.36
75247;BME280;63844;50.042;19.224;2023-02-03T14:09:02;98272.35;;;0.67;91.18
75247;BME280;63844;50.042;19.224;2023-02-03T14:11:44;98269.64;;;0.71;91.37
75247;BME280;63844;50.042;19.224;2023-02-03T14:16:43;98254.42;;;0.81;90.83
75247;BME280;63844;50.042;19.224;2023-02-03T14:22:04;98248.07;;;0.79;91.47
75247;BME280;63844;50.042;19.224;2023-02-03T14:24:40;98242.12;;;0.80;91.39
75247;BME280;63844;50.042;19.224;2023-02-03T14:27:24;98235.08;;;0.77;91.54
75247;BME280;63844;50.042;19.224;2023-02-03T14:30:13;98227.20;;;0.78;91.44
75247;BME280;63844;50.042;19.224;2023-02-03T14:32:50;98222.05;;;0.81;91.36
75247;BME280;63844;50.042;19.224;2023-02-03T14:35:32;98220.85;;;0.84;90.99
75247;BME280;63844;50.042;19.224;2023-02-03T14:49:18;98184.54;;;0.95;91.79